Malaysia Virtual Airlines Airport Information Service

Ninoy Aquino International Airport (NAIA)

ICAO: RPLL Country: Philippines
Latitude: 14.505 Longitude: 121.004
Latest Arrival : AK584 (WMKK-RPLL) Latest Departure : AK583 (RPLL-WMKK)


WX CaptureLIVE
Data provided by noaa.gov | Fetched at 06:10:10

METAR : RPLL 290500Z 11008KT 070V180 9999 SCT023 BKN300 32/24 Q1008 NOSIG RMK A2977

TAF : RPLL 290500Z 2906/3012 08005KT 9999 FEW025 SCT300 TX32/2906Z TN25/2921Z TEMPO 2906/2912 12009KT SCT022 BKN090 TEMPO 2912/2918 VRB03KT FEW023 BKN100


Runway Data for RPLL
Data provided by openaviationdata.com

Runway ID Mag Var Hdg Length Elevation Surface ILS Freq ILS Id ILS Slope
6 -1 61° 11196 ft 22 ft Concrete 109.1 IML 3
13 -1 135° 6568 ft 22 ft Concrete -- -- --
24 -1 241° 11196 ft 22 ft Concrete 109.9 IMA 3
31 -1 315° 6568 ft 22 ft Concrete -- -- --

Ninoy Aquino International Airport (NAIA), Philippines
Use only for reference purposes



Not for navigational purposes.